createdAt,value
2023-01-09T00:01:55.210Z,69.30
2023-01-09T00:04:21.819Z,69.33
2023-01-09T00:06:53.935Z,68.93
2023-01-09T00:09:22.205Z,69.69
2023-01-09T00:11:49.720Z,69.63
2023-01-09T00:14:17.291Z,68.89
2023-01-09T00:16:43.760Z,68.90
2023-01-09T00:19:10.831Z,69.50
2023-01-09T00:21:37.903Z,70.03
2023-01-09T00:24:04.800Z,69.33
2023-01-09T00:26:31.348Z,70.62
2023-01-09T00:28:58.061Z,70.28
2023-01-09T00:31:24.540Z,70.55
2023-01-09T00:34:01.251Z,70.59
2023-01-09T00:36:28.145Z,71.80
2023-01-09T00:38:54.809Z,72.99
2023-01-09T00:41:27.961Z,72.47
2023-01-09T00:44:01.074Z,73.42
2023-01-09T00:46:34.684Z,74.46
2023-01-09T00:49:05.223Z,74.04
2023-01-09T00:51:31.611Z,74.01
2023-01-09T00:53:58.320Z,72.63
2023-01-09T00:56:25.710Z,74.73
2023-01-09T00:58:52.890Z,75.59
2023-01-09T01:01:19.368Z,75.05
2023-01-09T01:03:45.842Z,74.50
2023-01-09T01:06:30.668Z,75.22
2023-01-09T01:08:57.123Z,75.03
2023-01-09T01:11:23.878Z,75.47
2023-01-09T01:13:50.420Z,74.66
2023-01-09T01:16:18.318Z,73.27
2023-01-09T01:18:44.976Z,73.71
2023-01-09T01:21:13.433Z,71.37
2023-01-09T01:23:40.177Z,72.17
2023-01-09T01:26:15.496Z,71.86
2023-01-09T01:28:42.825Z,72.37
2023-01-09T01:31:15.174Z,72.31
2023-01-09T01:33:41.590Z,73.93
2023-01-09T01:36:09.040Z,72.37
2023-01-09T01:38:35.880Z,72.52
2023-01-09T01:41:02.768Z,72.72
2023-01-09T01:43:49.581Z,72.30
2023-01-09T01:46:17.849Z,71.49
2023-01-09T01:48:45.585Z,71.48
2023-01-09T01:51:15.605Z,70.90
2023-01-09T01:53:51.830Z,72.46
2023-01-09T01:56:18.239Z,72.74
2023-01-09T01:58:50.035Z,73.67
2023-01-09T02:01:16.835Z,73.65
2023-01-09T02:03:44.057Z,74.35
2023-01-09T02:06:12.422Z,74.38
2023-01-09T02:08:38.845Z,72.62
2023-01-09T02:11:05.696Z,73.24
2023-01-09T02:13:35.121Z,72.56
2023-01-09T02:16:10.373Z,71.97
2023-01-09T02:18:51.156Z,72.59
2023-01-09T02:21:51.525Z,73.14
2023-01-09T02:24:48.467Z,74.08
2023-01-09T02:27:42.622Z,74.94
2023-01-09T02:30:46.525Z,74.38
2023-01-09T02:33:22.005Z,75.74
2023-01-09T02:36:11.670Z,75.84
2023-01-09T02:39:07.845Z,76.85
2023-01-09T02:42:27.153Z,77.76
2023-01-09T02:44:53.669Z,78.27
2023-01-09T02:47:20.634Z,78.42
2023-01-09T02:49:50.463Z,78.24
2023-01-09T02:52:19.841Z,77.39
2023-01-09T02:54:51.164Z,77.92
2023-01-09T02:57:57.106Z,78.10
2023-01-09T03:00:38.719Z,78.78
2023-01-09T03:03:08.100Z,78.69
2023-01-09T03:05:48.037Z,78.61
2023-01-09T03:08:24.158Z,78.44
2023-01-09T03:11:00.748Z,79.00
2023-01-09T03:13:32.713Z,80.44
2023-01-09T03:16:03.000Z,80.73
2023-01-09T03:18:32.341Z,80.13
2023-01-09T03:20:58.930Z,80.23
2023-01-09T03:23:25.421Z,80.79
2023-01-09T03:25:51.836Z,81.39
2023-01-09T03:28:29.524Z,81.48
2023-01-09T03:30:56.002Z,81.99
2023-01-09T03:33:22.429Z,82.13
2023-01-09T03:35:48.879Z,81.83
2023-01-09T03:38:15.307Z,82.74
2023-01-09T03:40:43.679Z,81.19
2023-01-09T03:43:10.281Z,82.92
2023-01-09T03:45:37.808Z,82.80
2023-01-09T03:48:04.605Z,81.95
2023-01-09T03:50:31.039Z,81.42
2023-01-09T03:52:57.450Z,80.67
2023-01-09T03:55:23.865Z,79.91
2023-01-09T03:57:50.361Z,80.82
2023-01-09T04:00:17.242Z,81.90
2023-01-09T04:02:43.669Z,82.54
2023-01-09T04:05:10.255Z,82.27
2023-01-09T04:07:36.770Z,82.38
2023-01-09T04:10:03.971Z,82.44
2023-01-09T04:12:30.417Z,80.94
2023-01-09T04:14:56.888Z,80.10
2023-01-09T04:17:23.371Z,79.34
2023-01-09T04:19:50.748Z,78.73
2023-01-09T04:22:17.144Z,80.44
2023-01-09T04:24:43.551Z,79.83
2023-01-09T04:27:12.101Z,80.19
2023-01-09T04:29:38.539Z,80.28
2023-01-09T04:32:05.280Z,81.80
2023-01-09T04:34:31.675Z,80.62
2023-01-09T04:36:58.118Z,79.98
2023-01-09T04:39:24.526Z,79.48
2023-01-09T04:41:51.045Z,79.91
2023-01-09T04:44:23.322Z,80.46
2023-01-09T04:46:49.751Z,80.02
2023-01-09T04:49:16.267Z,79.22
2023-01-09T04:51:42.699Z,79.37
2023-01-09T04:54:09.178Z,79.95
2023-01-09T04:56:36.751Z,80.05
2023-01-09T04:59:05.116Z,79.46
2023-01-09T05:01:31.959Z,79.90
2023-01-09T05:03:58.731Z,78.75
2023-01-09T05:06:25.256Z,79.55
2023-01-09T05:08:51.674Z,79.80
2023-01-09T05:11:18.274Z,79.61
2023-01-09T05:13:44.886Z,79.04
2023-01-09T05:16:11.550Z,80.09
2023-01-09T05:18:38.016Z,79.46
2023-01-09T05:21:04.680Z,77.61
2023-01-09T05:23:31.106Z,76.81
2023-01-09T05:25:57.565Z,77.19
2023-01-09T05:28:23.978Z,77.62
2023-01-09T05:30:50.414Z,78.38
2023-01-09T05:33:16.851Z,77.37
2023-01-09T05:35:43.310Z,78.43
2023-01-09T05:38:09.787Z,79.39
2023-01-09T05:40:40.423Z,78.72
2023-01-09T05:43:07.338Z,78.04
2023-01-09T05:45:34.404Z,76.43
2023-01-09T05:48:01.036Z,77.65
2023-01-09T05:50:27.572Z,79.43
2023-01-09T05:52:53.997Z,78.49
2023-01-09T05:55:20.463Z,79.79
2023-01-09T05:57:46.997Z,81.12
2023-01-09T06:00:14.172Z,79.99
2023-01-09T06:02:40.745Z,81.39
2023-01-09T06:05:07.999Z,81.05
2023-01-09T06:07:36.567Z,82.55
2023-01-09T06:10:03.669Z,81.69
2023-01-09T06:12:30.142Z,82.87
2023-01-09T06:14:56.680Z,81.30
2023-01-09T06:17:23.087Z,81.75
2023-01-09T06:19:51.350Z,80.96
2023-01-09T06:22:17.804Z,81.11
2023-01-09T06:24:44.210Z,80.17
2023-01-09T06:27:12.929Z,80.16
2023-01-09T06:29:39.987Z,79.38
2023-01-09T06:32:06.962Z,80.85
2023-01-09T06:34:33.382Z,78.17
2023-01-09T06:36:59.852Z,77.45
2023-01-09T06:39:26.270Z,80.04
2023-01-09T06:41:52.685Z,78.51
2023-01-09T06:44:19.312Z,77.36
2023-01-09T06:46:45.828Z,78.70
2023-01-09T06:49:12.339Z,80.94
2023-01-09T06:51:38.798Z,80.46
2023-01-09T06:54:05.202Z,79.00
2023-01-09T06:56:31.649Z,79.59
2023-01-09T06:58:58.108Z,78.38
2023-01-09T07:01:24.743Z,80.46
2023-01-09T07:03:51.589Z,82.11
2023-01-09T07:06:19.995Z,80.71
2023-01-09T07:08:47.873Z,79.40
2023-01-09T07:11:14.469Z,79.71
2023-01-09T07:13:40.994Z,78.43
2023-01-09T07:16:07.724Z,80.28
2023-01-09T07:18:34.346Z,78.47
2023-01-09T07:21:00.775Z,79.67
2023-01-09T07:23:27.234Z,79.57
2023-01-09T07:25:53.733Z,78.00
2023-01-09T07:28:20.149Z,76.70
2023-01-09T07:30:46.563Z,76.27
2023-01-09T07:33:13.076Z,79.63
2023-01-09T07:35:39.517Z,78.75
2023-01-09T07:38:05.953Z,77.13
2023-01-09T07:40:32.380Z,76.39
2023-01-09T07:42:58.788Z,75.48
2023-01-09T07:45:25.250Z,77.14
2023-01-09T07:47:52.343Z,75.76
2023-01-09T07:50:19.514Z,75.64
2023-01-09T07:52:46.597Z,74.94
2023-01-09T07:55:14.282Z,75.03
2023-01-09T07:57:41.540Z,75.27
2023-01-09T08:00:10.927Z,74.20
2023-01-09T08:02:37.604Z,74.06
2023-01-09T08:05:04.245Z,74.25
2023-01-09T08:07:30.816Z,75.33
2023-01-09T08:09:57.245Z,75.84
2023-01-09T08:12:23.760Z,76.26
2023-01-09T08:14:51.362Z,75.01
2023-01-09T08:17:18.372Z,75.64
2023-01-09T08:19:44.801Z,76.57
2023-01-09T08:22:11.741Z,74.02
2023-01-09T08:24:38.247Z,74.22
2023-01-09T08:27:04.680Z,74.82
2023-01-09T08:29:31.163Z,72.15
2023-01-09T08:31:57.603Z,69.28
2023-01-09T08:34:24.071Z,72.04
2023-01-09T08:36:50.660Z,67.15
2023-01-09T08:39:17.260Z,68.65
2023-01-09T08:42:02.357Z,68.79
2023-01-09T08:44:47.080Z,65.65
2023-01-09T08:47:17.642Z,61.86
2023-01-09T08:49:44.300Z,60.02
2023-01-09T08:52:10.783Z,57.13
2023-01-09T08:54:38.993Z,54.43
2023-01-09T08:57:07.202Z,54.55
2023-01-09T08:59:34.367Z,55.12
2023-01-09T09:02:00.956Z,56.85
2023-01-09T09:04:27.468Z,54.38
2023-01-09T09:06:54.054Z,49.43
2023-01-09T09:09:20.540Z,54.09
2023-01-09T09:11:47.044Z,51.86
2023-01-09T09:14:32.023Z,53.52
2023-01-09T09:16:58.464Z,54.10
2023-01-09T09:19:24.862Z,55.37
2023-01-09T09:21:51.367Z,49.56
2023-01-09T09:24:17.879Z,52.26
2023-01-09T09:26:44.754Z,52.36
2023-01-09T09:29:11.523Z,49.44
2023-01-09T09:31:38.817Z,46.45
2023-01-09T09:34:06.723Z,44.99
2023-01-09T09:36:33.446Z,43.99
2023-01-09T09:39:00.947Z,44.63
2023-01-09T09:42:19.045Z,47.76
2023-01-09T09:44:54.510Z,48.90
2023-01-09T09:47:41.575Z,53.32
2023-01-09T09:50:25.781Z,52.95
2023-01-09T09:52:58.707Z,50.81
2023-01-09T09:55:30.847Z,48.41
2023-01-09T09:58:00.295Z,45.94
2023-01-09T10:00:28.053Z,49.35
2023-01-09T10:03:06.046Z,51.14
2023-01-09T10:05:45.489Z,52.85
2023-01-09T10:08:18.756Z,52.53
2023-01-09T10:10:53.165Z,53.66
2023-01-09T10:13:41.587Z,52.97
2023-01-09T10:16:26.733Z,56.49
2023-01-09T10:19:20.016Z,55.60
2023-01-09T10:22:15.835Z,58.13
2023-01-09T10:25:13.279Z,56.70
2023-01-09T10:28:00.638Z,58.31
2023-01-09T10:30:34.966Z,58.34
2023-01-09T10:33:20.070Z,58.61
2023-01-09T10:35:49.531Z,58.07
2023-01-09T10:38:39.433Z,58.25
2023-01-09T10:41:22.743Z,59.20
2023-01-09T10:43:51.249Z,60.72
2023-01-09T10:46:26.748Z,57.78
2023-01-09T10:48:59.046Z,60.07
2023-01-09T10:51:34.793Z,59.26
2023-01-09T10:54:01.593Z,57.36
2023-01-09T10:56:34.505Z,61.92
2023-01-09T10:59:01.548Z,60.14
2023-01-09T11:01:34.532Z,61.08
2023-01-09T11:04:02.322Z,60.52
2023-01-09T11:06:40.167Z,61.00
2023-01-09T11:09:07.402Z,59.47
2023-01-09T11:11:37.067Z,59.37
2023-01-09T11:14:18.409Z,59.82
2023-01-09T11:16:56.722Z,59.36
2023-01-09T11:19:24.032Z,59.56
2023-01-09T11:21:51.137Z,61.98
2023-01-09T11:24:25.399Z,60.04
2023-01-09T11:26:54.615Z,62.00
2023-01-09T11:29:25.937Z,61.55
2023-01-09T11:31:58.060Z,61.59
2023-01-09T11:34:27.170Z,58.91
2023-01-09T11:37:01.944Z,62.20
2023-01-09T11:39:32.951Z,63.67
2023-01-09T11:42:03.284Z,61.94
2023-01-09T11:44:31.159Z,61.09
2023-01-09T11:46:57.962Z,63.25
2023-01-09T11:49:30.071Z,60.69
2023-01-09T11:52:14.983Z,61.01
2023-01-09T11:55:04.575Z,61.33
2023-01-09T11:57:32.350Z,60.69
2023-01-09T12:00:02.497Z,60.85
2023-01-09T12:03:01.224Z,56.19
2023-01-09T12:05:34.880Z,56.21
2023-01-09T12:08:28.191Z,58.13
2023-01-09T12:11:22.244Z,59.86
2023-01-09T12:13:51.610Z,57.31
2023-01-09T12:16:31.921Z,55.61
2023-01-09T12:19:20.120Z,54.66
2023-01-09T12:22:01.398Z,57.38
2023-01-09T12:25:01.043Z,55.71
2023-01-09T12:27:34.461Z,55.02
2023-01-09T12:30:26.707Z,57.91
2023-01-09T12:33:03.925Z,59.47
2023-01-09T12:35:30.315Z,58.72
2023-01-09T12:38:05.254Z,57.74
2023-01-09T12:40:38.242Z,59.60
2023-01-09T12:43:04.635Z,58.64
2023-01-09T12:45:31.119Z,56.71
2023-01-09T12:48:12.283Z,56.49
2023-01-09T12:51:19.296Z,56.79
2023-01-09T12:54:01.607Z,55.99
2023-01-09T12:56:40.957Z,56.50
2023-01-09T12:59:15.857Z,56.72
2023-01-09T13:01:48.514Z,60.94
2023-01-09T13:04:39.924Z,59.28
2023-01-09T13:07:18.001Z,58.58
2023-01-09T13:09:52.022Z,59.63
2023-01-09T13:12:22.150Z,55.84
2023-01-09T13:14:54.708Z,55.25
2023-01-09T13:17:36.292Z,55.81
2023-01-09T13:20:19.775Z,54.10
2023-01-09T13:22:50.248Z,55.36
2023-01-09T13:25:31.626Z,57.14
2023-01-09T13:28:14.045Z,60.29
2023-01-09T13:31:01.719Z,56.58
2023-01-09T13:33:35.441Z,55.22
2023-01-09T13:36:05.719Z,55.94
2023-01-09T13:38:35.062Z,59.56
2023-01-09T13:41:32.847Z,57.93
2023-01-09T13:44:28.523Z,56.09
2023-01-09T13:47:00.711Z,57.42
2023-01-09T13:49:50.129Z,58.27
2023-01-09T13:52:30.667Z,59.09
2023-01-09T13:54:59.989Z,59.65
2023-01-09T13:57:35.153Z,60.55
2023-01-09T14:00:07.688Z,57.00
2023-01-09T14:02:34.247Z,59.61
2023-01-09T14:05:15.152Z,59.60
2023-01-09T14:07:49.018Z,57.39
2023-01-09T14:10:30.198Z,60.41
2023-01-09T14:12:58.014Z,57.64
2023-01-09T14:15:43.282Z,56.69
2023-01-09T14:18:28.599Z,59.96
2023-01-09T14:23:51.575Z,59.69
2023-01-09T14:26:22.375Z,58.32
2023-01-09T14:28:48.970Z,58.87
2023-01-09T14:31:33.456Z,61.27
2023-01-09T14:34:31.713Z,59.83
2023-01-09T14:37:02.218Z,60.49
2023-01-09T14:39:32.363Z,58.24
2023-01-09T14:42:06.447Z,56.98
2023-01-09T14:44:36.995Z,61.09
2023-01-09T14:47:22.766Z,58.97
2023-01-09T14:49:58.869Z,58.33
2023-01-09T14:52:30.071Z,59.80
2023-01-09T14:55:00.953Z,61.15
2023-01-09T14:57:29.823Z,59.20
2023-01-09T15:00:01.223Z,57.14
2023-01-09T15:02:32.504Z,57.30
2023-01-09T15:05:05.913Z,57.97
2023-01-09T15:07:52.414Z,58.06
2023-01-09T15:11:08.374Z,56.83
2023-01-09T15:13:39.723Z,57.41
2023-01-09T15:16:06.923Z,57.40
2023-01-09T15:19:09.059Z,57.75
2023-01-09T15:22:21.673Z,57.89
2023-01-09T15:25:22.761Z,56.66
2023-01-09T15:34:39.469Z,57.56
2023-01-09T15:37:30.325Z,56.61
2023-01-09T15:39:59.025Z,57.62
2023-01-09T15:42:50.788Z,57.68
2023-01-09T15:45:26.920Z,57.36
2023-01-09T15:51:10.706Z,55.97
2023-01-09T15:54:25.191Z,59.27
2023-01-09T15:56:51.621Z,58.54
2023-01-09T15:59:37.324Z,59.78
2023-01-09T16:02:32.986Z,60.29
2023-01-09T16:05:18.286Z,61.02
2023-01-09T16:07:49.265Z,66.76
2023-01-09T16:10:24.596Z,67.51
2023-01-09T16:12:53.153Z,68.02
2023-01-09T16:15:20.496Z,69.56
2023-01-09T16:18:15.775Z,67.60
2023-01-09T16:20:43.172Z,67.97
2023-01-09T16:23:28.493Z,70.37
2023-01-09T16:26:09.201Z,69.15
2023-01-09T16:28:35.677Z,67.38
2023-01-09T16:31:21.389Z,64.77
2023-01-09T16:33:52.096Z,65.65
2023-01-09T16:36:45.114Z,63.82
2023-01-09T16:39:36.247Z,63.65
2023-01-09T16:42:27.689Z,63.36
2023-01-09T16:44:54.101Z,64.80
2023-01-09T16:47:20.530Z,67.01
2023-01-09T16:50:14.773Z,64.71
2023-01-09T16:52:41.167Z,69.06
2023-01-09T16:55:13.733Z,67.36
2023-01-09T16:57:41.473Z,67.16
2023-01-09T17:00:15.475Z,66.35
2023-01-09T17:02:42.292Z,65.32
2023-01-09T17:05:14.908Z,66.75
2023-01-09T17:07:41.346Z,66.46
2023-01-09T17:13:51.392Z,65.75
2023-01-09T17:16:19.425Z,66.22
2023-01-09T17:18:45.950Z,66.91
2023-01-09T17:21:21.428Z,68.34
2023-01-09T17:23:48.482Z,70.08
2023-01-09T17:26:39.585Z,67.69
2023-01-09T17:29:06.471Z,68.79
2023-01-09T17:31:33.025Z,66.10
2023-01-09T17:33:59.502Z,66.08
2023-01-09T17:36:32.114Z,66.50
2023-01-09T17:38:59.258Z,67.60
2023-01-09T17:41:30.707Z,68.74
2023-01-09T17:43:58.503Z,68.42
2023-01-09T17:46:33.740Z,68.58
2023-01-09T17:49:00.801Z,69.43
2023-01-09T17:51:29.180Z,71.05
2023-01-09T17:53:56.089Z,67.83
2023-01-09T17:56:25.690Z,70.93
2023-01-09T17:58:52.735Z,70.24
2023-01-09T18:01:19.978Z,68.06
2023-01-09T18:03:48.817Z,67.37
2023-01-09T18:06:17.845Z,71.71
2023-01-09T18:08:44.615Z,70.71
2023-01-09T18:11:14.510Z,72.66
2023-01-09T18:13:41.210Z,69.55
2023-01-09T18:16:19.432Z,70.27
2023-01-09T18:18:46.888Z,72.15
2023-01-09T18:21:19.462Z,74.27
2023-01-09T18:23:47.613Z,74.92
2023-01-09T18:26:20.018Z,75.29
2023-01-09T18:28:49.559Z,77.40
2023-01-09T18:31:18.422Z,77.93
2023-01-09T18:33:46.070Z,78.36
2023-01-09T18:36:12.659Z,77.91
2023-01-09T18:38:39.076Z,75.59
2023-01-09T18:41:06.018Z,78.70
2023-01-09T18:43:32.505Z,78.42
2023-01-09T18:45:58.971Z,75.79
2023-01-09T18:48:25.523Z,79.55
2023-01-09T18:50:51.928Z,78.51
2023-01-09T18:53:18.346Z,76.80
2023-01-09T18:55:44.743Z,77.22
2023-01-09T18:58:11.132Z,77.40
2023-01-09T19:00:37.640Z,78.55
2023-01-09T19:03:04.130Z,78.90
2023-01-09T19:05:32.421Z,78.67
2023-01-09T19:07:58.881Z,79.88
2023-01-09T19:10:25.331Z,77.21
2023-01-09T19:12:51.747Z,78.61
2023-01-09T19:15:18.251Z,77.96
2023-01-09T19:17:44.686Z,79.74
2023-01-09T19:20:11.728Z,76.01
2023-01-09T19:22:38.232Z,76.88
2023-01-09T19:25:04.975Z,77.40
2023-01-09T19:27:31.401Z,78.50
2023-01-09T19:29:57.846Z,78.15
2023-01-09T19:32:24.292Z,77.62
2023-01-09T19:34:50.806Z,75.33
2023-01-09T19:37:18.279Z,76.53
2023-01-09T19:39:46.582Z,79.12
2023-01-09T19:42:13.638Z,76.34
2023-01-09T19:44:40.485Z,75.98
2023-01-09T19:47:07.171Z,77.35
2023-01-09T19:49:33.668Z,78.50
2023-01-09T19:52:00.741Z,79.29
2023-01-09T19:54:29.135Z,79.06
2023-01-09T19:56:55.841Z,78.95
2023-01-09T19:59:22.399Z,79.57
2023-01-09T20:01:49.068Z,80.00
2023-01-09T20:04:17.291Z,77.78
2023-01-09T20:06:47.006Z,78.59
2023-01-09T20:09:16.501Z,77.29
2023-01-09T20:11:44.764Z,78.82
2023-01-09T20:14:13.584Z,78.13
2023-01-09T20:16:40.827Z,78.00
2023-01-09T20:19:08.664Z,79.09
2023-01-09T20:21:35.658Z,79.69
2023-01-09T20:24:05.172Z,78.47
2023-01-09T20:26:36.093Z,78.29
2023-01-09T20:29:02.831Z,78.97
2023-01-09T20:31:31.272Z,77.27
2023-01-09T20:34:01.578Z,78.69
2023-01-09T20:36:30.410Z,80.65
2023-01-09T20:38:59.569Z,77.82
2023-01-09T20:41:27.418Z,78.40
2023-01-09T20:43:56.874Z,79.17
2023-01-09T20:46:26.207Z,79.68
2023-01-09T20:48:56.131Z,80.20
2023-01-09T20:51:22.965Z,79.32
2023-01-09T20:53:55.588Z,77.31
2023-01-09T20:56:24.197Z,76.85
2023-01-09T20:58:50.961Z,77.97
2023-01-09T21:01:18.012Z,76.92
2023-01-09T21:03:44.840Z,78.10
2023-01-09T21:06:15.068Z,76.31
2023-01-09T21:08:42.869Z,77.02
2023-01-09T21:11:10.718Z,76.99
2023-01-09T21:13:38.214Z,77.65
2023-01-09T21:16:09.801Z,77.10
2023-01-09T21:18:37.302Z,79.41
2023-01-09T21:21:11.023Z,79.46
2023-01-09T21:23:37.478Z,78.26
2023-01-09T21:26:11.312Z,76.66
2023-01-09T21:28:56.320Z,75.73
2023-01-09T21:31:33.496Z,76.85
2023-01-09T21:34:05.158Z,75.79
2023-01-09T21:36:32.348Z,76.67
2023-01-09T21:38:59.497Z,77.02
2023-01-09T21:41:45.137Z,79.39
2023-01-09T21:44:31.512Z,79.17
2023-01-09T21:47:00.450Z,79.31
2023-01-09T21:49:31.049Z,79.43
2023-01-09T21:51:57.660Z,80.38
2023-01-09T21:54:24.227Z,80.14
2023-01-09T21:56:51.647Z,78.67
2023-01-09T21:59:18.632Z,76.97
2023-01-09T22:01:47.871Z,79.11
2023-01-09T22:04:15.413Z,77.71
2023-01-09T22:06:42.318Z,76.82
2023-01-09T22:09:10.054Z,79.24
2023-01-09T22:11:38.167Z,79.09
2023-01-09T22:14:04.970Z,79.08
2023-01-09T22:16:31.754Z,79.83
2023-01-09T22:18:58.329Z,77.98
2023-01-09T22:21:25.513Z,79.70
2023-01-09T22:23:51.967Z,80.06
2023-01-09T22:26:19.270Z,79.37
2023-01-09T22:28:46.041Z,80.81
2023-01-09T22:31:17.728Z,80.07
2023-01-09T22:33:48.926Z,80.05
2023-01-09T22:36:15.345Z,79.62
2023-01-09T22:38:41.760Z,78.65
2023-01-09T22:41:08.224Z,77.25
2023-01-09T22:43:34.700Z,78.28
2023-01-09T22:46:02.594Z,77.35
2023-01-09T22:48:31.763Z,78.06
2023-01-09T22:51:00.256Z,78.59
2023-01-09T22:53:26.900Z,76.59
2023-01-09T22:56:01.090Z,76.43
2023-01-09T22:58:30.255Z,77.21
2023-01-09T23:00:57.782Z,81.38
2023-01-09T23:03:24.644Z,78.86
2023-01-09T23:06:10.565Z,80.33
2023-01-09T23:08:37.296Z,78.99
2023-01-09T23:11:06.523Z,77.44
2023-01-09T23:13:32.940Z,78.29
2023-01-09T23:16:00.222Z,78.05
2023-01-09T23:18:26.715Z,77.63
2023-01-09T23:20:58.133Z,78.39
2023-01-09T23:23:26.328Z,77.39
2023-01-09T23:25:55.605Z,76.33
2023-01-09T23:28:23.041Z,75.48
2023-01-09T23:30:49.443Z,77.53
2023-01-09T23:33:17.039Z,76.56
2023-01-09T23:35:44.400Z,77.89
2023-01-09T23:38:11.679Z,74.99
2023-01-09T23:40:41.226Z,76.10
2023-01-09T23:43:10.302Z,75.09
2023-01-09T23:45:44.850Z,75.67
2023-01-09T23:48:13.892Z,76.02
2023-01-09T23:50:48.013Z,78.79
2023-01-09T23:53:14.658Z,76.80
2023-01-09T23:55:41.129Z,77.77
2023-01-09T23:58:07.633Z,77.32
